createdAt,value
2017-09-11T00:00:40.049Z,21.17
2017-09-11T00:01:40.689Z,21.12
2017-09-11T00:02:41.478Z,21.12
2017-09-11T00:03:42.111Z,21.14
2017-09-11T00:04:42.750Z,21.18
2017-09-11T00:05:43.538Z,21.15
2017-09-11T00:06:44.174Z,21.12
2017-09-11T00:07:44.810Z,21.12
2017-09-11T00:08:45.448Z,21.14
2017-09-11T00:09:46.283Z,21.12
2017-09-11T00:10:46.919Z,21.20
2017-09-11T00:11:47.557Z,21.18
2017-09-11T00:12:48.191Z,21.15
2017-09-11T00:13:48.831Z,21.21
2017-09-11T00:14:49.517Z,21.09
2017-09-11T00:15:50.153Z,21.15
2017-09-11T00:16:50.792Z,21.09
2017-09-11T00:17:51.877Z,21.18
2017-09-11T00:18:52.514Z,21.15
2017-09-11T00:19:53.147Z,21.15
2017-09-11T00:20:53.788Z,21.14
2017-09-11T00:21:54.421Z,21.17
2017-09-11T00:22:55.057Z,21.15
2017-09-11T00:23:55.693Z,21.17
2017-09-11T00:24:56.332Z,21.18
2017-09-11T00:25:57.169Z,21.17
2017-09-11T00:26:57.804Z,21.12
2017-09-11T00:27:58.496Z,21.07
2017-09-11T00:28:59.181Z,21.12
2017-09-11T00:29:59.820Z,21.15
2017-09-11T00:31:00.458Z,21.15
2017-09-11T00:32:01.093Z,21.12
2017-09-11T00:33:01.733Z,21.17
2017-09-11T00:34:02.515Z,21.14
2017-09-11T00:35:03.150Z,21.15
2017-09-11T00:36:03.789Z,21.14
2017-09-11T00:37:04.424Z,21.15
2017-09-11T00:38:05.062Z,21.11
2017-09-11T00:39:05.696Z,21.17
2017-09-11T00:40:06.335Z,21.17
2017-09-11T00:41:06.968Z,21.11
2017-09-11T00:42:07.658Z,21.11
2017-09-11T00:43:08.495Z,21.11
2017-09-11T00:44:09.133Z,21.14
2017-09-11T00:45:09.767Z,21.15
2017-09-11T00:46:10.403Z,21.14
2017-09-11T00:47:11.038Z,21.12
2017-09-11T00:48:11.676Z,21.11
2017-09-11T00:49:12.312Z,21.12
2017-09-11T00:50:12.948Z,21.11
2017-09-11T00:51:13.783Z,21.11
2017-09-11T00:52:14.422Z,21.14
2017-09-11T00:53:15.061Z,21.15
2017-09-11T00:54:15.696Z,21.14
2017-09-11T00:55:16.333Z,21.14
2017-09-11T00:56:16.970Z,21.15
2017-09-11T00:57:17.604Z,21.11
2017-09-11T00:58:18.238Z,21.14
2017-09-11T00:59:19.075Z,21.11
2017-09-11T01:00:19.715Z,21.18
2017-09-11T01:01:20.351Z,21.12
2017-09-11T01:02:20.988Z,21.12
2017-09-11T01:03:21.623Z,21.14
2017-09-11T01:04:22.260Z,21.14
2017-09-11T01:05:22.900Z,21.12
2017-09-11T01:06:23.534Z,21.11
2017-09-11T01:07:24.368Z,21.15
2017-09-11T01:08:25.005Z,21.14
2017-09-11T01:09:25.646Z,21.15
2017-09-11T01:10:26.282Z,21.14
2017-09-11T01:11:28.720Z,21.12
2017-09-11T01:12:29.357Z,21.11
2017-09-11T01:13:30.042Z,21.15
2017-09-11T01:14:30.678Z,21.12
2017-09-11T01:15:31.318Z,21.12
2017-09-11T01:16:32.155Z,21.11
2017-09-11T01:17:32.789Z,21.14
2017-09-11T01:18:33.426Z,21.12
2017-09-11T01:19:34.061Z,21.12
2017-09-11T01:20:34.697Z,21.07
2017-09-11T01:21:35.334Z,21.11
2017-09-11T01:22:35.970Z,21.14
2017-09-11T01:23:36.606Z,21.09
2017-09-11T01:24:37.441Z,21.12
2017-09-11T01:25:38.078Z,21.09
2017-09-11T01:26:38.717Z,21.15
2017-09-11T01:27:39.350Z,21.18
2017-09-11T01:28:39.988Z,21.12
2017-09-11T01:29:40.628Z,21.07
2017-09-11T01:30:41.262Z,21.12
2017-09-11T01:31:41.898Z,21.14
2017-09-11T01:32:42.683Z,21.14
2017-09-11T01:33:43.319Z,21.14
2017-09-11T01:34:43.955Z,21.17
2017-09-11T01:35:44.596Z,21.11
2017-09-11T01:36:45.233Z,21.14
2017-09-11T01:37:45.868Z,21.09
2017-09-11T01:38:46.505Z,21.12
2017-09-11T01:39:47.157Z,21.12
2017-09-11T01:40:48.078Z,21.11
2017-09-11T01:41:48.714Z,21.15
2017-09-11T01:42:49.349Z,21.17
2017-09-11T01:43:49.987Z,21.11
2017-09-11T01:44:50.621Z,21.14
2017-09-11T01:45:51.255Z,21.14
2017-09-11T01:46:51.892Z,21.12
2017-09-11T01:47:52.532Z,21.14
2017-09-11T01:48:53.365Z,21.14
2017-09-11T01:49:54.001Z,21.20
2017-09-11T01:50:54.641Z,21.14
2017-09-11T01:51:55.275Z,21.14
2017-09-11T01:52:55.914Z,21.15
2017-09-11T01:53:56.549Z,21.12
2017-09-11T01:54:57.186Z,21.15
2017-09-11T01:55:57.820Z,21.12
2017-09-11T01:56:58.457Z,21.12
2017-09-11T01:57:59.292Z,21.11
2017-09-11T01:58:59.927Z,21.14
2017-09-11T02:00:00.571Z,21.11
2017-09-11T02:01:01.201Z,21.11
2017-09-11T02:02:01.840Z,21.15
2017-09-11T02:03:02.475Z,21.12
2017-09-11T02:04:03.110Z,21.06
2017-09-11T02:05:03.747Z,21.14
2017-09-11T02:06:04.533Z,21.15
2017-09-11T02:07:05.169Z,21.15
2017-09-11T02:08:05.807Z,21.12
2017-09-11T02:09:06.444Z,21.12
2017-09-11T02:10:07.079Z,21.14
2017-09-11T02:11:07.718Z,21.14
2017-09-11T02:12:08.355Z,21.15
2017-09-11T02:13:08.989Z,21.11
2017-09-11T02:14:09.834Z,21.14
2017-09-11T02:15:10.470Z,21.07
2017-09-11T02:16:11.101Z,21.12
2017-09-11T02:17:11.685Z,21.12
2017-09-11T02:18:12.323Z,21.15
2017-09-11T02:19:12.960Z,21.07
2017-09-11T02:20:13.596Z,21.09
2017-09-11T02:21:14.234Z,21.07
2017-09-11T02:22:15.072Z,21.07
2017-09-11T02:23:15.707Z,21.06
2017-09-11T02:24:16.344Z,21.02
2017-09-11T02:25:16.982Z,21.09
2017-09-11T02:26:17.621Z,21.03
2017-09-11T02:27:18.254Z,21.06
2017-09-11T02:28:18.889Z,20.99
2017-09-11T02:29:19.525Z,21.05
2017-09-11T02:30:20.163Z,21.03
2017-09-11T02:31:21.103Z,21.07
2017-09-11T02:32:21.736Z,21.05
2017-09-11T02:33:22.374Z,21.05
2017-09-11T02:34:23.062Z,21.00
2017-09-11T02:35:23.749Z,21.05
2017-09-11T02:36:24.385Z,21.07
2017-09-11T02:37:25.019Z,21.05
2017-09-11T02:38:25.655Z,21.03
2017-09-11T02:39:26.493Z,21.03
2017-09-11T02:40:27.130Z,21.00
2017-09-11T02:41:27.768Z,21.11
2017-09-11T02:42:28.403Z,21.06
2017-09-11T02:43:29.092Z,21.06
2017-09-11T02:44:29.732Z,21.07
2017-09-11T02:45:30.365Z,21.05
2017-09-11T02:46:31.008Z,21.02
2017-09-11T02:47:31.905Z,21.07
2017-09-11T02:48:32.531Z,21.07
2017-09-11T02:49:33.166Z,21.07
2017-09-11T02:50:33.802Z,21.06
2017-09-11T02:51:34.437Z,21.03
2017-09-11T02:52:35.077Z,21.03
2017-09-11T02:53:35.712Z,21.03
2017-09-11T02:54:36.348Z,21.05
2017-09-11T02:55:37.188Z,21.06
2017-09-11T02:56:37.824Z,21.02
2017-09-11T02:57:38.508Z,21.06
2017-09-11T02:58:39.147Z,21.09
2017-09-11T02:59:39.782Z,21.05
2017-09-11T03:00:40.421Z,21.02
2017-09-11T03:01:41.058Z,20.95
2017-09-11T03:02:41.694Z,21.02
2017-09-11T03:03:42.478Z,21.03
2017-09-11T03:04:43.116Z,21.06
2017-09-11T03:05:43.752Z,21.05
2017-09-11T03:06:44.389Z,20.99
2017-09-11T03:07:45.024Z,21.06
2017-09-11T03:08:45.662Z,21.05
2017-09-11T03:09:46.297Z,21.00
2017-09-11T03:10:46.936Z,21.07
2017-09-11T03:11:47.572Z,20.99
2017-09-11T03:12:48.406Z,21.03
2017-09-11T03:13:49.044Z,21.09
2017-09-11T03:14:49.681Z,21.05
2017-09-11T03:15:50.314Z,21.03
2017-09-11T03:16:50.900Z,21.05
2017-09-11T03:17:51.534Z,21.02
2017-09-11T03:18:52.169Z,21.02
2017-09-11T03:19:52.803Z,21.05
2017-09-11T03:20:53.692Z,20.99
2017-09-11T03:21:54.329Z,21.02
2017-09-11T03:22:54.965Z,21.03
2017-09-11T03:23:55.599Z,20.95
2017-09-11T03:24:56.239Z,21.00
2017-09-11T03:25:56.876Z,21.06
2017-09-11T03:26:57.512Z,21.00
2017-09-11T03:27:58.145Z,21.03
2017-09-11T03:28:59.087Z,21.03
2017-09-11T03:29:59.772Z,21.07
2017-09-11T03:31:00.406Z,21.00
2017-09-11T03:32:01.045Z,21.03
2017-09-11T03:33:01.680Z,21.06
2017-09-11T03:34:02.317Z,20.97
2017-09-11T03:35:02.952Z,21.07
2017-09-11T03:36:03.590Z,21.06
2017-09-11T03:37:04.423Z,21.07
2017-09-11T03:38:05.060Z,21.06
2017-09-11T03:39:05.695Z,21.07
2017-09-11T03:40:06.332Z,21.06
2017-09-11T03:41:06.974Z,21.03
2017-09-11T03:42:07.661Z,21.06
2017-09-11T03:43:08.295Z,21.02
2017-09-11T03:44:08.931Z,21.02
2017-09-11T03:45:09.570Z,21.06
2017-09-11T03:46:10.405Z,21.07
2017-09-11T03:47:11.044Z,20.99
2017-09-11T03:48:11.677Z,20.97
2017-09-11T03:49:12.315Z,21.09
2017-09-11T03:50:12.951Z,21.06
2017-09-11T03:51:13.589Z,21.02
2017-09-11T03:52:14.224Z,21.03
2017-09-11T03:53:14.861Z,20.95
2017-09-11T03:54:15.694Z,21.05
2017-09-11T03:55:16.333Z,21.03
2017-09-11T03:56:16.970Z,20.95
2017-09-11T03:57:17.604Z,20.97
2017-09-11T03:58:18.239Z,21.05
2017-09-11T03:59:18.884Z,21.00
2017-09-11T04:00:19.514Z,21.06
2017-09-11T04:01:20.148Z,21.05
2017-09-11T04:02:20.947Z,21.02
2017-09-11T04:03:21.569Z,21.09
2017-09-11T04:04:22.205Z,21.05
2017-09-11T04:05:22.842Z,21.06
2017-09-11T04:06:23.480Z,21.05
2017-09-11T04:07:24.117Z,21.05
2017-09-11T04:08:24.751Z,21.05
2017-09-11T04:09:25.389Z,21.07
2017-09-11T04:10:26.227Z,21.03
2017-09-11T04:11:26.912Z,21.02
2017-09-11T04:12:27.548Z,21.02
2017-09-11T04:13:28.185Z,21.06
2017-09-11T04:14:28.819Z,21.02
2017-09-11T04:15:29.456Z,21.06
2017-09-11T04:16:30.097Z,21.06
2017-09-11T04:17:30.730Z,21.00
2017-09-11T04:18:31.518Z,20.96
2017-09-11T04:19:32.156Z,21.02
2017-09-11T04:20:32.792Z,21.03
2017-09-11T04:21:33.427Z,20.93
2017-09-11T04:22:34.064Z,20.95
2017-09-11T04:23:34.698Z,21.06
2017-09-11T04:24:35.336Z,20.97
2017-09-11T04:25:35.971Z,20.99
2017-09-11T04:26:36.607Z,20.95
2017-09-11T04:27:37.443Z,20.96
2017-09-11T04:28:38.078Z,20.97
2017-09-11T04:29:38.716Z,20.97
2017-09-11T04:30:39.353Z,20.97
2017-09-11T04:31:39.991Z,21.00
2017-09-11T04:32:40.625Z,20.96
2017-09-11T04:33:41.260Z,21.02
2017-09-11T04:34:41.897Z,21.02
2017-09-11T04:35:42.785Z,20.96
2017-09-11T04:36:43.420Z,20.96
2017-09-11T04:37:44.054Z,21.05
2017-09-11T04:38:44.694Z,21.02
2017-09-11T04:39:45.328Z,20.97
2017-09-11T04:40:45.964Z,21.02
2017-09-11T04:41:46.598Z,21.00
2017-09-11T04:42:47.236Z,20.93
2017-09-11T04:43:48.019Z,20.96
2017-09-11T04:44:48.656Z,20.99
2017-09-11T04:45:49.292Z,20.96
2017-09-11T04:46:49.929Z,21.00
2017-09-11T04:47:50.564Z,21.00
2017-09-11T04:48:51.202Z,21.00
2017-09-11T04:49:51.836Z,21.02
2017-09-11T04:50:52.473Z,21.00
2017-09-11T04:51:53.410Z,21.00
2017-09-11T04:52:54.044Z,20.97
2017-09-11T04:53:54.680Z,20.97
2017-09-11T04:54:55.315Z,20.96
2017-09-11T04:55:55.950Z,20.97
2017-09-11T04:56:56.586Z,20.99
2017-09-11T04:57:57.220Z,20.99
2017-09-11T04:58:57.858Z,20.95
2017-09-11T04:59:58.494Z,21.02
2017-09-11T05:00:59.332Z,21.00
2017-09-11T05:01:59.968Z,20.96
2017-09-11T05:03:00.606Z,20.99
2017-09-11T05:04:01.242Z,20.96
2017-09-11T05:05:01.878Z,21.02
2017-09-11T05:06:02.513Z,21.00
2017-09-11T05:07:03.150Z,21.00
2017-09-11T05:08:03.785Z,20.96
2017-09-11T05:09:04.571Z,20.95
2017-09-11T05:10:05.211Z,20.99
2017-09-11T05:11:05.849Z,20.92
2017-09-11T05:12:06.480Z,21.00
2017-09-11T05:13:07.118Z,21.00
2017-09-11T05:14:07.757Z,21.00
2017-09-11T05:15:08.391Z,20.99
2017-09-11T05:16:09.026Z,20.99
2017-09-11T05:17:09.860Z,21.02
2017-09-11T05:18:10.495Z,20.96
2017-09-11T05:19:11.134Z,20.99
2017-09-11T05:20:11.769Z,21.06
2017-09-11T05:21:12.408Z,20.99
2017-09-11T05:22:13.045Z,20.97
2017-09-11T05:23:13.680Z,21.02
2017-09-11T05:24:14.314Z,21.05
2017-09-11T05:25:15.152Z,20.96
2017-09-11T05:26:15.793Z,20.95
2017-09-11T05:27:16.429Z,20.97
2017-09-11T05:28:17.067Z,21.03
2017-09-11T05:29:17.706Z,20.95
2017-09-11T05:30:18.343Z,21.02
2017-09-11T05:31:18.978Z,21.03
2017-09-11T05:32:19.616Z,21.06
2017-09-11T05:33:20.508Z,21.00
2017-09-11T05:34:21.193Z,21.03
2017-09-11T05:35:21.827Z,20.99
2017-09-11T05:36:22.462Z,20.99
2017-09-11T05:37:23.098Z,20.99
2017-09-11T05:38:23.736Z,20.96
2017-09-11T05:39:24.374Z,20.95
2017-09-11T05:40:25.008Z,20.99
2017-09-11T05:41:25.645Z,20.97
2017-09-11T05:42:26.535Z,20.99
2017-09-11T05:43:27.171Z,21.00
2017-09-11T05:44:27.805Z,21.02
2017-09-11T05:45:28.447Z,21.02
2017-09-11T05:46:29.083Z,20.92
2017-09-11T05:47:29.717Z,20.96
2017-09-11T05:48:30.352Z,20.95
2017-09-11T05:49:30.990Z,20.93
2017-09-11T05:50:31.878Z,20.96
2017-09-11T05:51:32.515Z,20.97
2017-09-11T05:52:33.146Z,20.99
2017-09-11T05:53:33.782Z,20.96
2017-09-11T05:54:34.421Z,21.00
2017-09-11T05:55:35.055Z,21.00
2017-09-11T05:56:35.694Z,20.95
2017-09-11T05:57:36.332Z,20.95
2017-09-11T05:58:37.117Z,20.96
2017-09-11T05:59:37.751Z,21.02
2017-09-11T06:00:38.386Z,20.99
2017-09-11T06:01:39.022Z,20.97
2017-09-11T06:02:39.657Z,20.95
2017-09-11T06:03:40.296Z,21.05
2017-09-11T06:04:40.933Z,21.00
2017-09-11T06:05:41.565Z,20.96
2017-09-11T06:06:42.403Z,20.93
2017-09-11T06:07:43.039Z,20.96
2017-09-11T06:08:43.673Z,20.95
2017-09-11T06:09:44.308Z,20.95
2017-09-11T06:10:44.946Z,20.95
2017-09-11T06:11:45.580Z,20.95
2017-09-11T06:12:46.219Z,20.96
2017-09-11T06:13:46.852Z,20.99
2017-09-11T06:14:47.491Z,20.92
2017-09-11T06:15:48.276Z,20.85
2017-09-11T06:16:48.914Z,20.96
2017-09-11T06:17:49.549Z,20.99
2017-09-11T06:18:50.188Z,20.96
2017-09-11T06:19:50.828Z,20.93
2017-09-11T06:20:51.461Z,20.99
2017-09-11T06:21:52.097Z,20.95
2017-09-11T06:22:52.732Z,20.92
2017-09-11T06:23:53.566Z,20.97
2017-09-11T06:24:54.202Z,20.87
2017-09-11T06:25:54.841Z,20.85
2017-09-11T06:26:55.475Z,20.92
2017-09-11T06:27:56.112Z,20.85
2017-09-11T06:28:56.748Z,20.88
2017-09-11T06:29:57.387Z,20.93
2017-09-11T06:30:58.021Z,20.95
2017-09-11T06:31:58.959Z,20.85
2017-09-11T06:32:59.592Z,20.92
2017-09-11T06:34:00.227Z,20.96
2017-09-11T06:35:00.864Z,20.87
2017-09-11T06:36:01.501Z,20.90
2017-09-11T06:37:02.135Z,20.92
2017-09-11T06:38:02.772Z,20.93
2017-09-11T06:39:03.407Z,20.92
2017-09-11T06:40:04.247Z,20.96
2017-09-11T06:41:04.882Z,20.97
2017-09-11T06:42:05.515Z,20.87
2017-09-11T06:43:06.152Z,20.92
2017-09-11T06:44:06.786Z,20.90
2017-09-11T06:45:07.423Z,20.87
2017-09-11T06:46:08.058Z,20.82
2017-09-11T06:47:08.698Z,20.82
2017-09-11T06:48:09.534Z,20.87
2017-09-11T06:49:10.167Z,20.81
2017-09-11T06:50:10.806Z,20.74
2017-09-11T06:51:11.443Z,20.88
2017-09-11T06:52:12.080Z,20.88
2017-09-11T06:53:12.713Z,20.80
2017-09-11T06:54:13.350Z,20.84
2017-09-11T06:55:13.939Z,20.78
2017-09-11T06:56:14.572Z,20.87
2017-09-11T06:57:15.362Z,20.81
2017-09-11T06:58:15.998Z,20.84
2017-09-11T06:59:16.633Z,20.84
2017-09-11T07:00:17.270Z,20.81
2017-09-11T07:01:17.905Z,20.80
2017-09-11T07:02:18.544Z,20.81
2017-09-11T07:03:19.181Z,20.84
2017-09-11T07:04:19.816Z,20.81
2017-09-11T07:05:20.652Z,20.81
2017-09-11T07:06:21.291Z,20.85
2017-09-11T07:07:21.928Z,20.84
2017-09-11T07:08:22.564Z,20.84
2017-09-11T07:09:23.249Z,20.84
2017-09-11T07:10:23.884Z,20.84
2017-09-11T07:11:24.519Z,20.92
2017-09-11T07:12:25.157Z,20.90
2017-09-11T07:13:25.941Z,20.88
2017-09-11T07:14:26.586Z,20.90
2017-09-11T07:15:27.214Z,20.90
2017-09-11T07:16:27.856Z,20.90
2017-09-11T07:17:28.489Z,20.90
2017-09-11T07:18:29.127Z,20.88
2017-09-11T07:19:29.760Z,20.87
2017-09-11T07:20:30.397Z,20.90
2017-09-11T07:21:31.431Z,20.85
2017-09-11T07:22:32.066Z,20.85
2017-09-11T07:23:32.704Z,20.90
2017-09-11T07:24:33.341Z,20.85
2017-09-11T07:25:33.980Z,20.87
2017-09-11T07:26:34.610Z,20.82
2017-09-11T07:27:35.247Z,20.85
2017-09-11T07:28:35.883Z,20.96
2017-09-11T07:29:36.518Z,20.99
2017-09-11T07:30:37.353Z,20.99
2017-09-11T07:31:37.988Z,20.97
2017-09-11T07:32:38.627Z,21.00
2017-09-11T07:33:39.263Z,20.99
2017-09-11T07:34:39.898Z,20.97
2017-09-11T07:35:40.533Z,20.96
2017-09-11T07:36:41.169Z,20.96
2017-09-11T07:37:41.804Z,21.00
2017-09-11T07:38:42.591Z,21.00
2017-09-11T07:39:43.227Z,21.02
2017-09-11T07:40:43.864Z,21.02
2017-09-11T07:41:44.500Z,20.96
2017-09-11T07:42:45.134Z,20.97
2017-09-11T07:43:45.769Z,20.95
2017-09-11T07:44:46.409Z,20.90
2017-09-11T07:45:47.045Z,20.97
2017-09-11T07:46:47.881Z,21.00
2017-09-11T07:47:48.521Z,20.96
2017-09-11T07:48:49.161Z,21.02
2017-09-11T07:49:49.842Z,20.99
2017-09-11T07:50:50.480Z,20.97
2017-09-11T07:51:51.117Z,20.95
2017-09-11T07:52:51.755Z,21.02
2017-09-11T07:53:52.389Z,20.99
2017-09-11T07:54:53.175Z,20.99
2017-09-11T07:55:53.810Z,20.99
2017-09-11T07:56:54.444Z,21.00
2017-09-11T07:57:55.081Z,20.99
2017-09-11T07:58:55.721Z,20.99
2017-09-11T07:59:56.354Z,21.00
2017-09-11T08:00:56.989Z,21.02
2017-09-11T08:01:57.631Z,20.96
2017-09-11T08:02:58.417Z,21.02
2017-09-11T08:03:59.052Z,20.97
2017-09-11T08:04:59.688Z,20.97
2017-09-11T08:06:00.325Z,21.00
2017-09-11T08:07:00.963Z,20.96
2017-09-11T08:08:01.601Z,20.99
2017-09-11T08:09:02.234Z,20.97
2017-09-11T08:10:02.878Z,21.06
2017-09-11T08:11:03.506Z,21.03
2017-09-11T08:12:04.343Z,21.02
2017-09-11T08:13:04.980Z,20.96
2017-09-11T08:14:05.619Z,21.03
2017-09-11T08:15:06.253Z,20.95
2017-09-11T08:16:06.889Z,21.02
2017-09-11T08:17:07.526Z,20.96
2017-09-11T08:18:08.160Z,20.97
2017-09-11T08:19:08.797Z,21.02
2017-09-11T08:20:09.636Z,21.09
2017-09-11T08:21:10.271Z,21.02
2017-09-11T08:22:10.906Z,21.05
2017-09-11T08:23:11.541Z,21.06
2017-09-11T08:24:12.175Z,21.07
2017-09-11T08:25:12.809Z,21.03
2017-09-11T08:26:13.446Z,21.07
2017-09-11T08:27:14.086Z,21.11
2017-09-11T08:28:15.069Z,21.12
2017-09-11T08:29:15.704Z,21.12
2017-09-11T08:30:16.341Z,21.14
2017-09-11T08:31:16.978Z,21.11
2017-09-11T08:32:17.618Z,21.11
2017-09-11T08:33:18.251Z,21.12
2017-09-11T08:34:18.889Z,21.11
2017-09-11T08:35:19.526Z,21.12
2017-09-11T08:36:20.460Z,21.14
2017-09-11T08:37:21.099Z,21.21
2017-09-11T08:38:21.735Z,21.17
2017-09-11T08:39:22.373Z,21.18
2017-09-11T08:40:23.011Z,21.27
2017-09-11T08:41:23.653Z,21.24
2017-09-11T08:42:24.343Z,21.27
2017-09-11T08:43:24.977Z,21.24
2017-09-11T08:44:25.613Z,21.30
2017-09-11T08:45:26.452Z,21.32
2017-09-11T08:46:27.084Z,21.37
2017-09-11T08:47:27.719Z,21.27
2017-09-11T08:48:28.355Z,21.33
2017-09-11T08:49:28.995Z,21.33
2017-09-11T08:50:29.630Z,21.36
2017-09-11T08:51:30.317Z,21.36
2017-09-11T08:52:30.952Z,21.40
2017-09-11T08:53:31.788Z,21.36
2017-09-11T08:54:32.377Z,21.36
2017-09-11T08:55:33.017Z,21.35
2017-09-11T08:56:33.647Z,21.46
2017-09-11T08:57:34.283Z,21.39
2017-09-11T08:58:34.918Z,21.45
2017-09-11T08:59:35.556Z,21.40
2017-09-11T09:00:36.192Z,21.45
2017-09-11T09:01:37.026Z,21.35
2017-09-11T09:02:37.662Z,21.42
2017-09-11T09:03:38.300Z,21.45
2017-09-11T09:04:38.935Z,21.45
2017-09-11T09:05:39.574Z,21.42
2017-09-11T09:06:40.210Z,21.48
2017-09-11T09:07:40.848Z,21.45
2017-09-11T09:08:41.494Z,21.42
2017-09-11T09:09:42.337Z,21.51
2017-09-11T09:10:42.969Z,21.52
2017-09-11T09:11:43.608Z,21.46
2017-09-11T09:12:44.249Z,21.51
2017-09-11T09:13:44.881Z,21.48
2017-09-11T09:14:45.516Z,21.51
2017-09-11T09:15:46.155Z,21.45
2017-09-11T09:16:46.791Z,21.51
2017-09-11T09:17:47.628Z,21.50
2017-09-11T09:18:48.267Z,21.51
2017-09-11T09:19:48.906Z,21.45
2017-09-11T09:20:49.542Z,21.48
2017-09-11T09:21:50.179Z,21.46
2017-09-11T09:22:50.817Z,21.43
2017-09-11T09:23:51.455Z,21.40
2017-09-11T09:24:52.094Z,21.42
2017-09-11T09:25:52.731Z,21.46
2017-09-11T09:26:53.565Z,21.45
2017-09-11T09:27:54.204Z,21.39
2017-09-11T09:28:54.841Z,21.45
2017-09-11T09:29:55.479Z,21.45
2017-09-11T09:30:56.125Z,21.66
2017-09-11T09:31:56.765Z,21.80
2017-09-11T09:32:57.411Z,21.91
2017-09-11T09:33:58.049Z,21.98
2017-09-11T09:34:58.843Z,22.00
2017-09-11T09:35:59.490Z,22.10
2017-09-11T09:37:00.131Z,22.18
2017-09-11T09:38:00.773Z,22.06
2017-09-11T09:39:01.414Z,22.22
2017-09-11T09:40:02.054Z,22.25
2017-09-11T09:41:02.696Z,22.35
2017-09-11T09:42:03.336Z,22.45
2017-09-11T09:43:04.180Z,22.43
2017-09-11T09:44:04.819Z,22.43
2017-09-11T09:45:05.462Z,22.47
2017-09-11T09:46:06.106Z,22.45
2017-09-11T09:47:06.748Z,22.65
2017-09-11T09:48:07.391Z,22.63
2017-09-11T09:49:08.034Z,22.62
2017-09-11T09:50:08.676Z,22.59
2017-09-11T09:51:09.522Z,22.69
2017-09-11T09:52:10.165Z,22.70
2017-09-11T09:53:10.811Z,22.75
2017-09-11T09:54:11.450Z,22.75
2017-09-11T09:55:12.090Z,22.80
2017-09-11T09:56:12.736Z,22.80
2017-09-11T09:57:13.377Z,22.75
2017-09-11T09:58:14.020Z,22.73
2017-09-11T09:59:14.662Z,22.73
2017-09-11T10:00:15.456Z,22.72
2017-09-11T10:01:16.099Z,22.84
2017-09-11T10:02:16.741Z,22.88
2017-09-11T10:03:17.383Z,22.83
2017-09-11T10:04:18.025Z,22.83
2017-09-11T10:05:18.666Z,22.88
2017-09-11T10:06:19.318Z,22.93
2017-09-11T10:07:19.950Z,22.98
2017-09-11T10:08:20.892Z,23.05
2017-09-11T10:09:21.538Z,23.09
2017-09-11T10:10:22.182Z,23.23
2017-09-11T10:11:22.826Z,23.18
2017-09-11T10:12:23.467Z,23.13
2017-09-11T10:13:24.109Z,23.06
2017-09-11T10:14:24.753Z,23.17
2017-09-11T10:15:25.394Z,23.17
2017-09-11T10:16:26.188Z,23.27
2017-09-11T10:17:26.830Z,23.24
2017-09-11T10:18:27.473Z,23.39
2017-09-11T10:19:28.114Z,23.41
2017-09-11T10:20:28.760Z,23.40
2017-09-11T10:21:29.405Z,23.51
2017-09-11T10:22:30.048Z,23.44
2017-09-11T10:23:30.691Z,23.50
2017-09-11T10:24:31.538Z,23.48
2017-09-11T10:25:32.175Z,23.44
2017-09-11T10:26:32.818Z,23.48
2017-09-11T10:27:33.465Z,23.55
2017-09-11T10:28:34.111Z,23.54
2017-09-11T10:29:34.811Z,23.58
2017-09-11T10:30:35.452Z,23.62
2017-09-11T10:31:36.094Z,23.59
2017-09-11T10:32:36.885Z,23.71
2017-09-11T10:33:37.531Z,23.68
2017-09-11T10:34:38.174Z,23.73
2017-09-11T10:35:38.820Z,23.81
2017-09-11T10:36:39.461Z,23.77
2017-09-11T10:37:40.107Z,23.92
2017-09-11T10:38:40.750Z,23.91
2017-09-11T10:39:41.392Z,23.93
2017-09-11T10:40:42.037Z,23.95
2017-09-11T10:41:42.981Z,24.02
2017-09-11T10:42:43.576Z,24.02
2017-09-11T10:43:44.220Z,24.08
2017-09-11T10:44:45.066Z,24.11
2017-09-11T10:45:45.770Z,24.29
2017-09-11T10:46:46.410Z,24.32
2017-09-11T10:47:47.050Z,24.38
2017-09-11T10:48:47.697Z,24.42
2017-09-11T10:49:48.349Z,24.51
2017-09-11T10:50:48.996Z,24.50
2017-09-11T10:51:49.641Z,24.47
2017-09-11T10:52:53.328Z,24.74
2017-09-11T10:53:54.170Z,24.73
2017-09-11T10:54:54.817Z,24.86
2017-09-11T10:55:55.463Z,24.85
2017-09-11T10:56:56.110Z,24.99
2017-09-11T10:57:56.705Z,25.01
2017-09-11T10:58:57.351Z,25.10
2017-09-11T10:59:57.999Z,25.08
2017-09-11T11:00:58.644Z,25.14
2017-09-11T11:01:59.495Z,25.17
2017-09-11T11:03:00.139Z,25.18
2017-09-11T11:04:00.785Z,25.22
2017-09-11T11:05:01.432Z,25.22
2017-09-11T11:06:02.078Z,25.26
2017-09-11T11:07:02.725Z,25.36
2017-09-11T11:08:03.372Z,25.46
2017-09-11T11:09:04.022Z,25.33
2017-09-11T11:10:04.867Z,25.36
2017-09-11T11:11:05.511Z,25.32
2017-09-11T11:12:06.203Z,25.44
2017-09-11T11:13:06.802Z,25.40
2017-09-11T11:14:07.445Z,25.33
2017-09-11T11:15:08.093Z,25.46
2017-09-11T11:16:08.742Z,25.58
2017-09-11T11:17:09.388Z,25.84
2017-09-11T11:18:10.237Z,25.83
2017-09-11T11:19:10.884Z,25.75
2017-09-11T11:20:11.528Z,25.73
2017-09-11T11:21:12.173Z,25.65
2017-09-11T11:22:12.820Z,25.58
2017-09-11T11:23:13.467Z,25.54
2017-09-11T11:24:14.116Z,25.58
2017-09-11T11:25:14.761Z,25.47
2017-09-11T11:26:15.604Z,25.48
2017-09-11T11:27:16.249Z,25.44
2017-09-11T11:28:16.896Z,25.50
2017-09-11T11:29:17.545Z,25.58
2017-09-11T11:30:18.195Z,25.68
2017-09-11T11:31:18.844Z,25.66
2017-09-11T11:32:19.489Z,25.68
2017-09-11T11:33:20.133Z,25.65
2017-09-11T11:34:20.778Z,25.66
2017-09-11T11:35:21.776Z,25.68
2017-09-11T11:36:22.471Z,25.69
2017-09-11T11:37:23.117Z,25.77
2017-09-11T11:38:23.765Z,25.78
2017-09-11T11:39:24.411Z,25.85
2017-09-11T11:40:25.059Z,26.07
2017-09-11T11:41:25.702Z,26.13
2017-09-11T11:42:26.349Z,26.15
2017-09-11T11:43:27.249Z,26.38
2017-09-11T11:44:27.894Z,26.62
2017-09-11T11:45:28.539Z,26.63
2017-09-11T11:46:29.184Z,26.89
2017-09-11T11:47:29.834Z,27.05
2017-09-11T11:48:30.481Z,27.26
2017-09-11T11:49:31.125Z,27.26
2017-09-11T11:50:31.775Z,27.29
2017-09-11T11:51:32.583Z,27.68
2017-09-11T11:52:33.223Z,27.65
2017-09-11T11:53:33.870Z,27.54
2017-09-11T11:54:34.517Z,27.39
2017-09-11T11:55:35.165Z,27.39
2017-09-11T11:56:35.814Z,27.42
2017-09-11T11:57:36.465Z,27.36
2017-09-11T11:58:37.114Z,27.26
2017-09-11T11:59:37.966Z,27.21
2017-09-11T12:00:38.611Z,27.22
2017-09-11T12:01:39.260Z,27.48
2017-09-11T12:02:39.907Z,27.48
2017-09-11T12:03:40.562Z,27.37
2017-09-11T12:04:41.206Z,27.30
2017-09-11T12:05:41.859Z,27.35
2017-09-11T12:06:42.509Z,27.37
2017-09-11T12:07:43.159Z,27.78
2017-09-11T12:08:44.057Z,27.55
2017-09-11T12:09:44.708Z,27.51
2017-09-11T12:10:45.353Z,27.51
2017-09-11T12:11:46.005Z,27.65
2017-09-11T12:12:46.654Z,27.48
2017-09-11T12:13:47.304Z,27.75
2017-09-11T12:14:47.950Z,27.51
2017-09-11T12:15:48.599Z,27.73
2017-09-11T12:16:49.450Z,27.83
2017-09-11T12:17:50.100Z,28.14
2017-09-11T12:18:50.748Z,28.04
2017-09-11T12:19:51.400Z,28.38
2017-09-11T12:20:52.050Z,28.76
2017-09-11T12:21:52.747Z,28.76
2017-09-11T12:22:53.396Z,28.70
2017-09-11T12:23:54.047Z,28.75
2017-09-11T12:24:55.045Z,29.27
2017-09-11T12:25:55.699Z,29.38
2017-09-11T12:26:56.349Z,29.95
2017-09-11T12:27:56.999Z,30.28
2017-09-11T12:28:57.654Z,30.32
2017-09-11T12:29:58.304Z,30.68
2017-09-11T12:30:58.957Z,30.96
2017-09-11T12:31:59.608Z,30.80
2017-09-11T12:33:00.461Z,30.85
2017-09-11T12:34:01.112Z,30.80
2017-09-11T12:35:01.765Z,31.06
2017-09-11T12:36:02.416Z,31.44
2017-09-11T12:37:03.075Z,31.74
2017-09-11T12:38:03.722Z,31.96
2017-09-11T12:39:04.376Z,32.11
2017-09-11T12:40:05.060Z,31.77
2017-09-11T12:41:06.084Z,31.92
2017-09-11T12:42:06.741Z,31.58
2017-09-11T12:43:07.394Z,31.92
2017-09-11T12:44:08.050Z,31.69
2017-09-11T12:45:08.702Z,31.31
2017-09-11T12:46:09.355Z,31.46
2017-09-11T12:47:10.011Z,31.46
2017-09-11T12:48:10.718Z,31.29
2017-09-11T12:49:11.373Z,31.55
2017-09-11T12:50:12.373Z,31.46
2017-09-11T12:51:13.029Z,31.46
2017-09-11T12:52:13.684Z,31.58
2017-09-11T12:53:14.339Z,31.73
2017-09-11T12:54:14.994Z,31.55
2017-09-11T12:55:15.651Z,31.74
2017-09-11T12:56:16.307Z,31.71
2017-09-11T12:57:16.964Z,31.12
2017-09-11T12:58:17.823Z,30.87
2017-09-11T12:59:18.479Z,31.07
2017-09-11T13:00:19.131Z,31.47
2017-09-11T13:01:19.789Z,31.31